TimeEST,TemperatureF,Dew PointF,Humidity,Sea Level PressureIn,VisibilityMPH,Wind Direction,Wind SpeedMPH,Gust SpeedMPH,PrecipitationIn,Events,Conditions,WindDirDegrees,DateUTC
12:15 AM,46.8,38.8,74,29.89,10.0,Calm,Calm,-,N/A,,Overcast,0,2013-12-03 05:15:00
12:35 AM,46.6,39.0,75,29.87,10.0,Calm,Calm,-,N/A,,Overcast,0,2013-12-03 05:35:00
12:55 AM,47.5,38.3,70,29.87,10.0,NNE,3.5,-,N/A,,Overcast,30,2013-12-03 05:55:00
1:15 AM,45.7,39.6,79,29.87,10.0,Calm,Calm,-,N/A,,Overcast,0,2013-12-03 06:15:00
1:35 AM,47.8,38.3,70,29.87,10.0,Calm,Calm,-,N/A,,Overcast,0,2013-12-03 06:35:00
1:55 AM,46.4,39.9,78,29.87,10.0,Calm,Calm,-,N/A,,Overcast,0,2013-12-03 06:55:00
2:15 AM,46.4,39.7,78,29.87,10.0,ESE,3.5,-,N/A,,Overcast,110,2013-12-03 07:15:00
2:35 AM,46.2,40.1,79,29.87,10.0,Calm,Calm,-,N/A,,Overcast,0,2013-12-03 07:35:00
2:55 AM,45.7,40.3,81,29.87,10.0,Calm,Calm,-,N/A,,Overcast,0,2013-12-03 07:55:00
3:15 AM,46.8,39.9,77,29.87,10.0,Calm,Calm,-,N/A,,Overcast,0,2013-12-03 08:15:00
3:35 AM,47.3,40.8,78,29.87,10.0,Calm,Calm,-,N/A,Rain,Light Rain,0,2013-12-03 08:35:00
3:55 AM,45.7,41.4,85,29.87,10.0,NNW,3.5,-,N/A,,Overcast,330,2013-12-03 08:55:00
4:15 AM,45.7,41.7,86,29.87,10.0,Calm,Calm,-,N/A,,Overcast,0,2013-12-03 09:15:00
4:35 AM,45.5,41.2,85,29.87,10.0,NW,4.6,-,N/A,,Overcast,310,2013-12-03 09:35:00
4:55 AM,45.5,41.7,87,29.87,10.0,Calm,Calm,-,N/A,,Overcast,0,2013-12-03 09:55:00
5:15 AM,45.0,41.0,86,29.88,10.0,Calm,Calm,-,N/A,,Overcast,0,2013-12-03 10:15:00
5:35 AM,44.2,41.5,90,29.89,10.0,Calm,Calm,-,N/A,,Overcast,0,2013-12-03 10:35:00
5:55 AM,45.5,41.9,87,29.89,10.0,Calm,Calm,-,N/A,,Overcast,0,2013-12-03 10:55:00
6:15 AM,45.7,41.9,87,29.90,10.0,WNW,5.8,-,N/A,,Overcast,290,2013-12-03 11:15:00
6:35 AM,45.5,41.5,86,29.90,10.0,WNW,4.6,-,N/A,,Overcast,300,2013-12-03 11:35:00
6:55 AM,45.9,41.0,83,29.90,10.0,Calm,Calm,-,N/A,,Overcast,0,2013-12-03 11:55:00
7:15 AM,44.8,41.5,88,29.90,10.0,Calm,Calm,-,N/A,,Overcast,0,2013-12-03 12:15:00
7:35 AM,44.6,41.4,88,29.90,10.0,Calm,Calm,-,N/A,,Overcast,0,2013-12-03 12:35:00
7:55 AM,44.6,41.4,88,29.91,10.0,North,3.5,-,N/A,,Overcast,10,2013-12-03 12:55:00
8:15 AM,46.0,42.1,86,29.91,10.0,Calm,Calm,-,N/A,,Overcast,0,2013-12-03 13:15:00
8:35 AM,46.0,42.1,86,29.92,10.0,Calm,Calm,-,N/A,,Overcast,0,2013-12-03 13:35:00
8:55 AM,47.1,42.6,84,29.92,10.0,Calm,Calm,-,N/A,,Overcast,0,2013-12-03 13:55:00
9:15 AM,49.5,44.1,82,29.93,10.0,South,3.5,-,N/A,,Overcast,170,2013-12-03 14:15:00
9:35 AM,49.1,45.0,86,29.94,7.0,South,3.5,-,N/A,,Overcast,190,2013-12-03 14:35:00
9:55 AM,48.7,45.1,87,29.96,7.0,South,4.6,-,N/A,,Overcast,170,2013-12-03 14:55:00
10:15 AM,49.1,45.7,88,29.96,5.0,Calm,Calm,-,N/A,,Overcast,0,2013-12-03 15:15:00
10:35 AM,49.6,45.9,87,29.96,7.0,Calm,Calm,-,N/A,,Overcast,0,2013-12-03 15:35:00
10:55 AM,52.2,46.2,80,29.95,7.0,South,3.5,-,N/A,,Overcast,190,2013-12-03 15:55:00
11:15 AM,54.0,46.6,76,29.94,10.0,South,6.9,-,N/A,,Scattered Clouds,170,2013-12-03 16:15:00
11:35 AM,53.2,46.8,79,29.94,10.0,SE,5.8,-,N/A,,Clear,130,2013-12-03 16:35:00
11:55 AM,54.7,47.7,77,29.92,10.0,SSE,6.9,-,N/A,,Scattered Clouds,150,2013-12-03 16:55:00
12:15 PM,55.4,48.0,76,29.92,10.0,South,6.9,-,N/A,,Mostly Cloudy,180,2013-12-03 17:15:00
12:35 PM,55.9,47.8,74,29.92,10.0,SSW,6.9,-,N/A,,Overcast,210,2013-12-03 17:35:00
12:55 PM,55.6,48.6,77,29.91,10.0,South,5.8,-,N/A,,Overcast,180,2013-12-03 17:55:00
1:15 PM,56.3,49.1,77,29.91,10.0,South,5.8,-,N/A,,Overcast,190,2013-12-03 18:15:00
1:35 PM,56.7,49.3,76,29.90,10.0,SSE,4.6,-,N/A,,Overcast,150,2013-12-03 18:35:00
1:55 PM,57.4,49.5,75,29.90,10.0,SSE,4.6,-,N/A,,Overcast,160,2013-12-03 18:55:00
2:15 PM,57.2,48.6,73,29.90,10.0,South,6.9,-,N/A,,Overcast,170,2013-12-03 19:15:00
2:35 PM,57.2,48.4,72,29.90,10.0,Calm,Calm,-,N/A,,Overcast,0,2013-12-03 19:35:00
2:55 PM,57.2,48.6,73,29.90,10.0,South,3.5,-,N/A,,Overcast,180,2013-12-03 19:55:00
3:15 PM,57.6,48.7,72,29.89,10.0,SSE,3.5,-,N/A,,Overcast,160,2013-12-03 20:15:00
3:35 PM,57.6,49.3,74,29.90,10.0,SSE,3.5,-,N/A,,Overcast,150,2013-12-03 20:35:00
3:55 PM,57.2,49.1,74,29.90,10.0,SE,3.5,-,N/A,,Overcast,140,2013-12-03 20:55:00
4:15 PM,57.2,48.4,72,29.91,10.0,SSE,5.8,-,N/A,,Overcast,150,2013-12-03 21:15:00
4:35 PM,56.7,48.2,73,29.92,10.0,SSE,3.5,-,N/A,,Overcast,150,2013-12-03 21:35:00
4:55 PM,56.3,48.6,75,29.92,10.0,SSE,4.6,-,N/A,,Overcast,150,2013-12-03 21:55:00
5:15 PM,55.8,49.1,78,29.91,10.0,SSE,5.8,-,N/A,,Overcast,160,2013-12-03 22:15:00
5:35 PM,55.4,49.3,80,29.92,10.0,SSE,4.6,-,N/A,,Overcast,160,2013-12-03 22:35:00
5:55 PM,55.2,49.3,80,29.92,10.0,South,3.5,-,N/A,,Overcast,170,2013-12-03 22:55:00
6:15 PM,54.9,49.3,81,29.92,10.0,SSE,3.5,-,N/A,,Overcast,160,2013-12-03 23:15:00
6:35 PM,54.7,49.3,82,29.93,10.0,Calm,Calm,-,N/A,,Overcast,0,2013-12-03 23:35:00
6:55 PM,54.5,49.3,83,29.93,10.0,Calm,Calm,-,N/A,,Overcast,0,2013-12-03 23:55:00
7:15 PM,54.5,49.6,84,29.94,10.0,South,4.6,-,N/A,,Overcast,180,2013-12-04 00:15:00
7:35 PM,54.5,49.6,84,29.95,10.0,Calm,Calm,-,N/A,,Overcast,0,2013-12-04 00:35:00
7:55 PM,54.1,50.0,86,29.95,10.0,SSE,5.8,-,N/A,,Overcast,160,2013-12-04 00:55:00
8:15 PM,53.8,50.9,90,29.95,7.0,South,5.8,-,N/A,,Overcast,180,2013-12-04 01:15:00
8:35 PM,53.2,51.1,92,29.95,7.0,South,6.9,-,N/A,,Overcast,180,2013-12-04 01:35:00
8:55 PM,52.7,51.8,97,29.95,2.0,South,3.5,-,N/A,,Overcast,190,2013-12-04 01:55:00
9:15 PM,52.2,51.8,99,29.95,2.0,Calm,Calm,-,N/A,,Overcast,0,2013-12-04 02:15:00
9:35 PM,52.2,52.0,99,29.95,1.8,Calm,Calm,-,N/A,,Overcast,0,2013-12-04 02:35:00
9:55 PM,52.2,52.0,99,29.96,1.5,Calm,Calm,-,N/A,,Overcast,0,2013-12-04 02:55:00
10:15 PM,52.2,52.0,99,29.95,1.2,East,3.5,-,N/A,Rain,Rain,100,2013-12-04 03:15:00
10:35 PM,52.0,52.0,100,29.96,1.2,Calm,Calm,-,N/A,,Drizzle,0,2013-12-04 03:35:00
10:55 PM,52.0,52.0,100,29.97,1.2,Calm,Calm,-,N/A,,Drizzle,0,2013-12-04 03:55:00
11:15 PM,52.0,52.0,100,29.97,1.5,Calm,Calm,-,N/A,,Drizzle,0,2013-12-04 04:15:00
11:22 PM,51.8,51.8,100,29.97,1.8,Calm,Calm,-,N/A,,Light Drizzle,0,2013-12-04 04:22:00
11:35 PM,52.0,52.0,100,29.97,2.0,Calm,Calm,-,N/A,,Overcast,0,2013-12-04 04:35:00
11:55 PM,51.8,51.8,100,29.97,1.0,Calm,Calm,-,N/A,Rain,Light Rain,0,2013-12-04 04:55:00